Terminal Aerodrome Forecast
Issued by NWS Tulsa, OK

Home | Current Version | Previous Version | Text Only | Print | Product List | Glossary On
Versions: 1 2 3 4 5 6 7 8 9 10 11 12 13 14 15 16
370
FTUS44 KTSA 252340
TAFFSM
TAF
KFSM 252340Z 2600/2624 31009KT P6SM SCT025 BKN035
     FM260600 VRB03KT P6SM SCT035
      TEMPO 2610/2614 4SM BR
     FM261600 14007KT P6SM SCT250=

USA.gov is the U.S. government's official web portal to all federal, state and local government web resources and services.